createdAt,value
2019-05-25T00:00:56.107Z,19.86
2019-05-25T00:03:25.412Z,19.62
2019-05-25T00:05:54.681Z,19.53
2019-05-25T00:08:23.985Z,19.70
2019-05-25T00:10:53.250Z,19.64
2019-05-25T00:13:22.570Z,19.74
2019-05-25T00:15:51.877Z,19.21
2019-05-25T00:18:21.170Z,19.04
2019-05-25T00:20:50.427Z,19.75
2019-05-25T00:23:19.684Z,19.46
2019-05-25T00:25:48.981Z,19.30
2019-05-25T00:28:18.236Z,19.45
2019-05-25T00:30:47.590Z,19.43
2019-05-25T00:33:16.920Z,19.54
2019-05-25T00:35:46.241Z,19.11
2019-05-25T00:38:15.525Z,19.02
2019-05-25T00:40:44.834Z,19.25
2019-05-25T00:43:14.124Z,19.19
2019-05-25T00:45:43.417Z,19.31
2019-05-25T00:48:12.680Z,19.12
2019-05-25T00:50:41.995Z,19.08
2019-05-25T00:53:11.227Z,18.65
2019-05-25T00:55:40.515Z,18.66
2019-05-25T00:58:09.796Z,18.87
2019-05-25T01:00:39.490Z,18.82
2019-05-25T01:03:08.765Z,18.99
2019-05-25T01:05:38.142Z,18.86
2019-05-25T01:08:07.369Z,19.12
2019-05-25T01:10:36.717Z,19.15
2019-05-25T01:13:05.982Z,18.88
2019-05-25T01:15:34.905Z,18.47
2019-05-25T01:18:04.319Z,18.74
2019-05-25T01:20:33.617Z,18.70
2019-05-25T01:23:02.876Z,18.84
2019-05-25T01:25:32.195Z,18.87
2019-05-25T01:28:01.481Z,18.99
2019-05-25T01:30:30.852Z,18.84
2019-05-25T01:33:00.137Z,18.53
2019-05-25T01:35:29.420Z,18.65
2019-05-25T01:37:58.704Z,18.38
2019-05-25T01:40:28.012Z,18.58
2019-05-25T01:42:57.300Z,18.52
2019-05-25T01:45:26.611Z,18.38
2019-05-25T01:47:55.889Z,18.47
2019-05-25T01:50:25.276Z,18.38
2019-05-25T01:52:54.552Z,18.45
2019-05-25T01:55:23.812Z,18.54
2019-05-25T01:57:53.105Z,18.35
2019-05-25T02:00:22.529Z,18.45
2019-05-25T02:02:51.812Z,18.15
2019-05-25T02:05:21.112Z,18.28
2019-05-25T02:07:50.418Z,18.06
2019-05-25T02:10:19.664Z,18.19
2019-05-25T02:12:48.926Z,18.44
2019-05-25T02:15:18.326Z,18.57
2019-05-25T02:17:47.597Z,18.34
2019-05-25T02:20:16.954Z,18.37
2019-05-25T02:22:46.293Z,18.39
2019-05-25T02:25:18.124Z,18.40
2019-05-25T02:27:46.812Z,18.11
2019-05-25T02:30:16.370Z,18.05
2019-05-25T02:32:45.725Z,18.38
2019-05-25T02:35:25.404Z,18.60
2019-05-25T02:37:54.757Z,18.14
2019-05-25T02:40:24.173Z,18.27
2019-05-25T02:42:53.573Z,18.41
2019-05-25T02:45:23.233Z,18.07
2019-05-25T02:47:52.616Z,18.22
2019-05-25T02:50:22.050Z,18.31
2019-05-25T02:52:51.300Z,18.11
2019-05-25T02:55:33.708Z,18.34
2019-05-25T02:57:52.185Z,18.34
2019-05-25T03:00:31.390Z,18.05
2019-05-25T03:03:00.994Z,18.04
2019-05-25T03:05:30.285Z,17.95
2019-05-25T03:07:59.726Z,18.10
2019-05-25T03:10:29.699Z,17.83
2019-05-25T03:13:01.446Z,17.87
2019-05-25T03:15:30.863Z,17.69
2019-05-25T03:18:00.342Z,17.95
2019-05-25T03:20:32.738Z,17.64
2019-05-25T03:23:02.103Z,17.90
2019-05-25T03:25:31.394Z,17.97
2019-05-25T03:28:00.806Z,17.92
2019-05-25T03:30:35.021Z,17.87
2019-05-25T03:33:04.630Z,17.60
2019-05-25T03:35:34.614Z,17.67
2019-05-25T03:38:03.895Z,18.20
2019-05-25T03:40:33.202Z,18.15
2019-05-25T03:43:05.603Z,17.19
2019-05-25T03:45:35.039Z,17.44
2019-05-25T03:48:04.534Z,18.41
2019-05-25T03:50:33.838Z,18.06
2019-05-25T03:53:03.103Z,17.74
2019-05-25T03:55:37.172Z,17.37
2019-05-25T03:58:06.454Z,17.72
2019-05-25T04:00:36.934Z,18.09
2019-05-25T04:03:06.740Z,18.32
2019-05-25T04:05:36.003Z,17.99
2019-05-25T04:08:05.409Z,18.08
2019-05-25T04:10:34.670Z,17.99
2019-05-25T04:13:04.017Z,18.22
2019-05-25T04:15:34.520Z,18.43
2019-05-25T04:18:03.861Z,18.41
2019-05-25T04:20:33.129Z,18.34
2019-05-25T04:23:02.437Z,18.50
2019-05-25T04:25:31.821Z,17.94
2019-05-25T04:28:01.144Z,18.81
2019-05-25T04:30:30.392Z,18.31
2019-05-25T04:32:59.690Z,18.75
2019-05-25T04:35:28.943Z,18.70
2019-05-25T04:37:58.295Z,19.09
2019-05-25T04:40:27.574Z,18.82
2019-05-25T04:42:56.920Z,19.02
2019-05-25T04:45:26.217Z,18.64
2019-05-25T04:47:55.638Z,18.62
2019-05-25T04:50:24.952Z,17.65
2019-05-25T04:52:54.243Z,18.97
2019-05-25T04:55:23.506Z,18.94
2019-05-25T04:57:52.791Z,19.25
2019-05-25T05:00:22.099Z,19.12
2019-05-25T05:02:51.388Z,19.29
2019-05-25T05:05:20.649Z,19.34
2019-05-25T05:07:50.016Z,19.21
2019-05-25T05:10:19.308Z,19.45
2019-05-25T05:12:48.571Z,19.97
2019-05-25T05:15:17.830Z,19.71
2019-05-25T05:17:47.129Z,18.29
2019-05-25T05:20:16.472Z,18.95
2019-05-25T05:22:45.775Z,19.73
2019-05-25T05:25:15.080Z,19.81
2019-05-25T05:27:44.467Z,19.89
2019-05-25T05:30:13.744Z,18.93
2019-05-25T05:32:43.084Z,19.67
2019-05-25T05:35:12.695Z,20.10
2019-05-25T05:37:42.823Z,20.06
2019-05-25T05:40:13.227Z,19.56
2019-05-25T05:42:44.980Z,19.25
2019-05-25T05:45:15.208Z,20.21
2019-05-25T05:47:47.102Z,20.75
2019-05-25T05:50:16.574Z,20.49
2019-05-25T05:52:48.789Z,21.16
2019-05-25T05:55:21.246Z,21.50
2019-05-25T05:57:50.507Z,21.21
2019-05-25T06:00:19.933Z,21.43
2019-05-25T06:02:49.190Z,21.42
2019-05-25T06:05:18.579Z,21.47
2019-05-25T06:07:47.826Z,21.54
2019-05-25T06:10:17.653Z,21.10
2019-05-25T06:12:46.916Z,22.12
2019-05-25T06:15:16.678Z,22.60
2019-05-25T06:17:45.978Z,22.83
2019-05-25T06:20:15.295Z,22.57
2019-05-25T06:22:44.683Z,22.69
2019-05-25T06:25:14.200Z,22.84
2019-05-25T06:27:43.472Z,22.90
2019-05-25T06:30:13.257Z,22.94
2019-05-25T06:32:42.671Z,22.99
2019-05-25T06:35:12.033Z,23.01
2019-05-25T06:37:41.385Z,23.13
2019-05-25T06:40:10.992Z,23.39
2019-05-25T06:42:40.251Z,23.33
2019-05-25T06:45:10.477Z,22.94
2019-05-25T06:47:39.795Z,22.55
2019-05-25T06:50:09.828Z,23.55
2019-05-25T06:52:39.173Z,23.74
2019-05-25T06:55:09.512Z,24.62
2019-05-25T06:57:43.542Z,24.14
2019-05-25T07:00:10.600Z,23.36
2019-05-25T07:02:39.965Z,24.05
2019-05-25T07:05:09.725Z,24.30
2019-05-25T07:07:38.988Z,24.59
2019-05-25T07:10:09.109Z,23.77
2019-05-25T07:12:38.415Z,23.21
2019-05-25T07:15:08.429Z,23.93
2019-05-25T07:17:37.739Z,24.22
2019-05-25T07:20:07.352Z,24.14
2019-05-25T07:22:36.652Z,23.04
2019-05-25T07:25:06.681Z,24.38
2019-05-25T07:27:36.051Z,24.20
2019-05-25T07:30:05.866Z,23.27
2019-05-25T07:32:35.147Z,24.30
2019-05-25T07:35:04.565Z,24.79
2019-05-25T07:37:33.978Z,24.53
2019-05-25T07:40:06.618Z,23.93
2019-05-25T07:42:38.067Z,23.01
2019-05-25T07:45:07.778Z,22.53
2019-05-25T07:47:37.174Z,22.67
2019-05-25T07:50:07.529Z,21.94
2019-05-25T07:52:36.908Z,23.04
2019-05-25T07:55:06.776Z,23.17
2019-05-25T07:57:36.137Z,23.40
2019-05-25T08:00:06.366Z,24.29
2019-05-25T08:02:45.622Z,24.17
2019-05-25T08:05:15.163Z,24.73
2019-05-25T08:07:44.621Z,24.39
2019-05-25T08:10:14.350Z,24.60
2019-05-25T08:12:43.682Z,24.35
2019-05-25T08:15:20.373Z,24.14
2019-05-25T08:17:49.706Z,24.54
2019-05-25T08:20:19.188Z,23.59
2019-05-25T08:22:50.861Z,23.68
2019-05-25T08:25:20.331Z,23.30
2019-05-25T08:27:49.631Z,23.17
2019-05-25T08:30:19.057Z,23.05
2019-05-25T08:32:48.408Z,23.70
2019-05-25T08:35:17.880Z,24.97
2019-05-25T08:37:47.187Z,25.83
2019-05-25T08:40:16.590Z,25.15
2019-05-25T08:42:45.874Z,24.72
2019-05-25T08:45:20.260Z,24.61
2019-05-25T08:47:49.570Z,24.91
2019-05-25T08:50:19.044Z,25.64
2019-05-25T08:52:48.281Z,25.67
2019-05-25T08:55:19.029Z,24.94
2019-05-25T08:57:48.370Z,22.59
2019-05-25T09:00:18.816Z,23.64
2019-05-25T09:02:51.397Z,23.59
2019-05-25T09:05:19.814Z,25.00
2019-05-25T09:07:49.173Z,25.47
2019-05-25T09:10:21.183Z,25.79
2019-05-25T09:12:50.481Z,25.70
2019-05-25T09:15:20.233Z,24.09
2019-05-25T09:17:49.538Z,24.12
2019-05-25T09:20:23.083Z,25.23
2019-05-25T09:22:52.414Z,24.29
2019-05-25T09:25:22.040Z,24.15
2019-05-25T09:27:51.452Z,25.29
2019-05-25T09:30:21.481Z,24.64
2019-05-25T09:32:50.828Z,25.27
2019-05-25T09:35:20.737Z,26.26
2019-05-25T09:37:50.046Z,25.89
2019-05-25T09:40:21.404Z,25.85
2019-05-25T09:42:56.535Z,26.01
2019-05-25T09:45:25.867Z,25.54
2019-05-25T09:48:16.189Z,25.79
2019-05-25T09:50:45.836Z,26.81
2019-05-25T09:53:15.107Z,26.69
2019-05-25T09:55:44.596Z,24.69
2019-05-25T09:58:13.916Z,25.44
2019-05-25T10:00:45.162Z,24.18
2019-05-25T10:03:14.465Z,25.42
2019-05-25T10:05:43.824Z,26.28
2019-05-25T10:08:13.132Z,25.68
2019-05-25T10:10:42.453Z,25.05
2019-05-25T10:13:11.751Z,25.67
2019-05-25T10:15:41.087Z,26.50
2019-05-25T10:18:10.472Z,25.39
2019-05-25T10:20:39.751Z,25.46
2019-05-25T10:23:09.100Z,25.25
2019-05-25T10:25:38.390Z,25.24
2019-05-25T10:28:07.683Z,24.45
2019-05-25T10:30:37.033Z,24.43
2019-05-25T10:33:06.494Z,26.75
2019-05-25T10:35:35.795Z,26.67
2019-05-25T10:38:05.386Z,26.58
2019-05-25T10:40:34.640Z,26.45
2019-05-25T10:43:04.087Z,26.21
2019-05-25T10:45:33.608Z,23.77
2019-05-25T10:48:02.950Z,24.60
2019-05-25T10:50:32.222Z,25.38
2019-05-25T10:53:01.563Z,24.00
2019-05-25T10:55:30.960Z,24.48
2019-05-25T10:58:00.314Z,25.21
2019-05-25T11:00:29.716Z,26.04
2019-05-25T11:02:59.035Z,25.37
2019-05-25T11:05:28.427Z,25.78
2019-05-25T11:07:57.817Z,26.10
2019-05-25T11:10:27.364Z,26.19
2019-05-25T11:12:56.773Z,25.98
2019-05-25T11:15:26.145Z,26.36
2019-05-25T11:17:55.479Z,25.58
2019-05-25T11:20:24.942Z,25.60
2019-05-25T11:22:54.335Z,26.16
2019-05-25T11:25:23.636Z,25.98
2019-05-25T11:27:52.940Z,25.54
2019-05-25T11:30:23.362Z,26.15
2019-05-25T11:32:52.694Z,26.60
2019-05-25T11:35:22.250Z,27.16
2019-05-25T11:37:51.561Z,27.13
2019-05-25T11:40:21.360Z,26.73
2019-05-25T11:42:50.709Z,27.86
2019-05-25T11:45:20.528Z,27.27
2019-05-25T11:47:49.873Z,26.77
2019-05-25T11:50:38.544Z,26.95
2019-05-25T11:53:07.870Z,27.15
2019-05-25T11:55:37.190Z,27.41
2019-05-25T11:58:06.474Z,27.67
2019-05-25T12:00:35.930Z,27.86
2019-05-25T12:03:05.187Z,28.71
2019-05-25T12:05:34.490Z,28.26
2019-05-25T12:08:04.015Z,28.76
2019-05-25T12:10:34.350Z,28.35
2019-05-25T12:13:03.689Z,28.24
2019-05-25T12:15:34.101Z,28.86
2019-05-25T12:18:03.439Z,28.12
2019-05-25T12:20:32.901Z,26.38
2019-05-25T12:23:02.638Z,26.13
2019-05-25T12:25:32.372Z,26.66
2019-05-25T12:28:01.678Z,27.87
2019-05-25T12:30:40.233Z,28.62
2019-05-25T12:33:02.014Z,27.38
2019-05-25T12:35:31.419Z,28.01
2019-05-25T12:38:00.764Z,27.77
2019-05-25T12:40:30.126Z,27.86
2019-05-25T12:42:59.417Z,27.42
2019-05-25T12:45:28.792Z,26.93
2019-05-25T12:47:58.285Z,26.51
2019-05-25T12:50:27.569Z,27.03
2019-05-25T12:52:56.860Z,27.46
2019-05-25T12:55:26.146Z,27.78
2019-05-25T12:57:55.459Z,26.71
2019-05-25T13:00:24.893Z,27.70
2019-05-25T13:02:54.237Z,26.91
2019-05-25T13:05:33.557Z,26.47
2019-05-25T13:07:54.612Z,26.10
2019-05-25T13:10:23.919Z,26.19
2019-05-25T13:12:53.274Z,27.70
2019-05-25T13:15:22.545Z,27.49
2019-05-25T13:17:51.863Z,26.32
2019-05-25T13:20:20.188Z,26.93
2019-05-25T13:22:49.490Z,27.34
2019-05-25T13:25:18.851Z,27.98
2019-05-25T13:27:48.190Z,26.53
2019-05-25T13:30:17.495Z,27.06
2019-05-25T13:32:46.865Z,27.54
2019-05-25T13:35:16.597Z,27.11
2019-05-25T13:37:45.945Z,27.02
2019-05-25T13:40:15.399Z,27.02
2019-05-25T13:42:44.733Z,27.24
2019-05-25T13:45:14.532Z,27.11
2019-05-25T13:47:43.936Z,27.84
2019-05-25T13:50:13.426Z,27.58
2019-05-25T13:52:42.874Z,26.44
2019-05-25T13:55:12.269Z,27.97
2019-05-25T13:57:41.617Z,26.77
2019-05-25T14:00:12.506Z,26.40
2019-05-25T14:02:41.846Z,27.17
2019-05-25T14:05:11.342Z,27.39
2019-05-25T14:07:40.785Z,28.21
2019-05-25T14:10:10.527Z,26.97
2019-05-25T14:12:40.044Z,26.36
2019-05-25T14:15:10.379Z,26.90
2019-05-25T14:17:39.828Z,27.39
2019-05-25T14:20:10.096Z,25.60
2019-05-25T14:22:39.445Z,27.00
2019-05-25T14:25:09.308Z,27.75
2019-05-25T14:27:38.613Z,27.06
2019-05-25T14:30:09.977Z,27.61
2019-05-25T14:32:39.301Z,26.94
2019-05-25T14:35:08.748Z,27.34
2019-05-25T14:37:38.042Z,27.13
2019-05-25T14:40:11.079Z,28.56
2019-05-25T14:42:38.620Z,27.27
2019-05-25T14:45:08.393Z,26.65
2019-05-25T14:47:37.699Z,26.64
2019-05-25T14:50:07.966Z,26.88
2019-05-25T14:52:37.430Z,26.24
2019-05-25T14:55:06.964Z,27.96
2019-05-25T14:57:36.253Z,26.73
2019-05-25T15:00:08.607Z,26.99
2019-05-25T15:02:37.924Z,26.50
2019-05-25T15:05:07.569Z,26.92
2019-05-25T15:07:36.903Z,27.66
2019-05-25T15:10:05.387Z,27.05
2019-05-25T15:12:34.731Z,26.69
2019-05-25T15:15:04.797Z,27.56
2019-05-25T15:17:37.232Z,27.69
2019-05-25T15:20:06.261Z,27.82
2019-05-25T15:22:35.558Z,28.00
2019-05-25T15:25:05.429Z,28.20
2019-05-25T15:27:48.025Z,27.95
2019-05-25T15:30:16.474Z,27.88
2019-05-25T15:32:48.412Z,27.90
2019-05-25T15:35:20.294Z,26.98
2019-05-25T15:37:49.405Z,26.87
2019-05-25T15:40:19.222Z,27.29
2019-05-25T15:42:52.667Z,27.61
2019-05-25T15:45:25.454Z,27.09
2019-05-25T15:47:54.786Z,27.86
2019-05-25T15:50:28.118Z,27.57
2019-05-25T15:52:57.533Z,27.41
2019-05-25T15:55:26.879Z,26.40
2019-05-25T15:57:56.357Z,27.86
2019-05-25T16:00:58.523Z,28.12
2019-05-25T16:03:43.257Z,28.15
2019-05-25T16:06:12.121Z,27.62
2019-05-25T16:08:41.917Z,28.24
2019-05-25T16:11:12.431Z,27.96
2019-05-25T16:13:41.811Z,28.10
2019-05-25T16:16:11.195Z,27.79
2019-05-25T16:18:40.808Z,27.62
2019-05-25T16:21:13.945Z,28.15
2019-05-25T16:23:43.384Z,28.09
2019-05-25T16:26:15.075Z,26.81
2019-05-25T16:28:44.500Z,26.98
2019-05-25T16:31:13.892Z,27.03
2019-05-25T16:33:43.217Z,27.42
2019-05-25T16:36:14.623Z,27.54
2019-05-25T16:38:46.402Z,26.97
2019-05-25T16:41:18.320Z,27.80
2019-05-25T16:43:47.810Z,27.03
2019-05-25T16:46:17.104Z,27.85
2019-05-25T16:48:46.532Z,26.51
2019-05-25T16:51:15.898Z,26.76
2019-05-25T16:53:45.402Z,26.84
2019-05-25T16:56:14.893Z,27.20
2019-05-25T16:58:45.592Z,27.33
2019-05-25T17:01:17.873Z,26.31
2019-05-25T17:03:47.253Z,26.88
2019-05-25T17:06:18.904Z,27.11
2019-05-25T17:08:48.310Z,26.97
2019-05-25T17:11:17.598Z,27.53
2019-05-25T17:13:46.955Z,27.55
2019-05-25T17:16:16.318Z,26.61
2019-05-25T17:18:45.556Z,26.26
2019-05-25T17:21:14.882Z,26.50
2019-05-25T17:23:44.219Z,26.31
2019-05-25T17:26:13.587Z,26.80
2019-05-25T17:28:42.879Z,26.66
2019-05-25T17:31:12.214Z,26.65
2019-05-25T17:33:46.052Z,26.16
2019-05-25T17:36:13.357Z,26.91
2019-05-25T17:38:42.654Z,26.53
2019-05-25T17:41:11.955Z,27.41
2019-05-25T17:43:41.261Z,27.01
2019-05-25T17:46:10.609Z,27.64
2019-05-25T17:48:39.981Z,26.96
2019-05-25T17:51:09.401Z,27.11
2019-05-25T17:53:38.721Z,27.72
2019-05-25T17:56:08.082Z,27.50
2019-05-25T17:58:37.353Z,26.95
2019-05-25T18:01:06.691Z,27.67
2019-05-25T18:03:36.045Z,26.80
2019-05-25T18:06:05.754Z,27.42
2019-05-25T18:08:35.044Z,26.72
2019-05-25T18:11:04.423Z,26.95
2019-05-25T18:13:33.728Z,27.52
2019-05-25T18:16:03.255Z,27.08
2019-05-25T18:18:32.542Z,26.98
2019-05-25T18:21:04.918Z,26.92
2019-05-25T18:23:34.387Z,26.85
2019-05-25T18:26:04.081Z,25.36
2019-05-25T18:28:33.652Z,25.70
2019-05-25T18:31:03.240Z,26.27
2019-05-25T18:33:32.684Z,26.49
2019-05-25T18:36:05.083Z,26.35
2019-05-25T18:38:34.572Z,26.38
2019-05-25T18:41:03.917Z,25.65
2019-05-25T18:43:33.539Z,25.78
2019-05-25T18:46:03.065Z,25.47
2019-05-25T18:48:34.459Z,25.43
2019-05-25T18:51:03.543Z,25.79
2019-05-25T18:53:32.964Z,25.51
2019-05-25T18:56:02.370Z,25.55
2019-05-25T18:58:31.751Z,25.05
2019-05-25T19:01:01.267Z,25.02
2019-05-25T19:03:30.596Z,25.26
2019-05-25T19:06:02.966Z,25.61
2019-05-25T19:08:32.356Z,24.44
2019-05-25T19:11:01.675Z,25.30
2019-05-25T19:13:30.963Z,25.42
2019-05-25T19:16:00.270Z,25.36
2019-05-25T19:18:29.578Z,25.45
2019-05-25T19:20:58.935Z,25.26
2019-05-25T19:23:28.298Z,24.84
2019-05-25T19:25:57.674Z,25.06
2019-05-25T19:28:27.363Z,24.67
2019-05-25T19:30:56.670Z,25.18
2019-05-25T19:33:26.028Z,24.71
2019-05-25T19:35:55.686Z,25.20
2019-05-25T19:38:24.978Z,24.92
2019-05-25T19:40:54.398Z,24.90
2019-05-25T19:43:23.664Z,24.86
2019-05-25T19:45:53.120Z,24.84
2019-05-25T19:48:22.643Z,24.42
2019-05-25T19:50:51.953Z,24.44
2019-05-25T19:53:21.267Z,24.45
2019-05-25T19:55:50.802Z,24.32
2019-05-25T19:58:20.147Z,24.16
2019-05-25T20:00:49.595Z,24.20
2019-05-25T20:03:18.945Z,23.95
2019-05-25T20:05:48.296Z,24.23
2019-05-25T20:08:17.620Z,24.35
2019-05-25T20:10:46.954Z,24.37
2019-05-25T20:13:16.222Z,24.24
2019-05-25T20:15:45.515Z,23.97
2019-05-25T20:18:14.791Z,23.83
2019-05-25T20:20:44.197Z,23.65
2019-05-25T20:23:13.647Z,23.62
2019-05-25T20:25:42.914Z,23.81
2019-05-25T20:28:12.188Z,23.79
2019-05-25T20:30:41.573Z,24.36
2019-05-25T20:33:10.828Z,24.23
2019-05-25T20:35:40.109Z,23.84
2019-05-25T20:38:09.584Z,23.93
2019-05-25T20:40:38.855Z,23.76
2019-05-25T20:43:08.144Z,23.89
2019-05-25T20:45:37.399Z,23.97
2019-05-25T20:48:10.545Z,24.23
2019-05-25T20:50:37.793Z,24.24
2019-05-25T20:53:07.127Z,23.76
2019-05-25T20:55:36.507Z,24.23
2019-05-25T20:58:05.907Z,24.20
2019-05-25T21:00:35.203Z,24.01
2019-05-25T21:03:06.456Z,23.99
2019-05-25T21:05:48.923Z,23.97
2019-05-25T21:08:06.614Z,23.64
2019-05-25T21:10:35.871Z,23.53
2019-05-25T21:13:05.151Z,23.57
2019-05-25T21:15:34.506Z,23.42
2019-05-25T21:18:03.990Z,23.32
2019-05-25T21:20:33.297Z,23.16
2019-05-25T21:23:02.907Z,23.33
2019-05-25T21:25:32.228Z,23.07
2019-05-25T21:28:01.642Z,23.14
2019-05-25T21:30:30.935Z,22.90
2019-05-25T21:33:00.343Z,23.11
2019-05-25T21:35:29.806Z,22.87
2019-05-25T21:37:59.246Z,22.85
2019-05-25T21:40:28.614Z,22.66
2019-05-25T21:42:57.908Z,22.64
2019-05-25T21:45:27.247Z,22.47
2019-05-25T21:47:56.704Z,22.53
2019-05-25T21:50:26.111Z,22.51
2019-05-25T21:52:55.447Z,22.66
2019-05-25T21:55:24.878Z,22.67
2019-05-25T21:57:54.143Z,22.58
2019-05-25T22:00:26.344Z,22.39
2019-05-25T22:02:55.808Z,22.17
2019-05-25T22:05:25.326Z,22.45
2019-05-25T22:07:54.717Z,22.04
2019-05-25T22:10:24.044Z,22.12
2019-05-25T22:12:53.353Z,22.02
2019-05-25T22:15:22.709Z,21.93
2019-05-25T22:17:51.953Z,21.68
2019-05-25T22:20:21.371Z,21.89
2019-05-25T22:22:50.761Z,21.92
2019-05-25T22:25:20.192Z,21.66
2019-05-25T22:27:49.549Z,21.43
2019-05-25T22:30:19.142Z,21.56
2019-05-25T22:32:48.542Z,21.58
2019-05-25T22:35:18.034Z,21.65
2019-05-25T22:37:47.367Z,21.34
2019-05-25T22:40:16.790Z,21.38
2019-05-25T22:42:46.027Z,21.39
2019-05-25T22:45:16.809Z,21.42
2019-05-25T22:47:46.044Z,21.32
2019-05-25T22:50:15.743Z,21.30
2019-05-25T22:55:14.312Z,21.53
2019-05-25T22:57:43.799Z,21.31
2019-05-25T23:00:13.618Z,21.21
2019-05-25T23:02:43.092Z,21.21
2019-05-25T23:05:12.806Z,21.20
2019-05-25T23:07:44.258Z,20.76
2019-05-25T23:10:13.887Z,21.09
2019-05-25T23:12:45.425Z,20.92
2019-05-25T23:15:15.872Z,20.92
2019-05-25T23:17:45.345Z,20.98
2019-05-25T23:20:14.896Z,21.02
2019-05-25T23:22:44.763Z,20.96
2019-05-25T23:25:14.325Z,20.95
2019-05-25T23:27:46.746Z,21.04
2019-05-25T23:30:16.648Z,20.67
2019-05-25T23:32:46.065Z,20.75
2019-05-25T23:35:16.649Z,20.76
2019-05-25T23:37:46.295Z,20.60
2019-05-25T23:40:16.052Z,20.60
2019-05-25T23:42:45.454Z,20.63
2019-05-25T23:45:15.782Z,20.83
2019-05-25T23:47:45.315Z,20.70
2019-05-25T23:50:16.014Z,20.57
2019-05-25T23:52:45.486Z,20.58
2019-05-25T23:55:14.947Z,20.36
2019-05-25T23:57:44.386Z,20.37
